Bow Heron — DYTN — position and weather

sailwx.info

Track history (hours):
 
Tides and Currents Weather Stations Pressure Air Temp Water Temp Dewpoint Dewpoint Depression Visibility Wind Speed Wind Dir Waves Ship Positions

Bow Heron

Last reported at 2014-Jul-25 11:13 UTC. Time now 2014-Aug-28 13:26 UTC.
Position N 29°53' W 089°57'.
Warning: this ship's position is 34 days out of date.

Length 175 m; draft 10.5 m.

Type: Ship (hazmat cat A). MMSI: 548779000.

Date/timePositionNaut miles runAvg speedWind from/ knotsBaromVisibWave heightAir tempDewpointWater temp
2014-Jul-25 11:13N 29°53' W 089°57'21 7.2
2014-Jul-25 08:14N 29°56' W 090°21'1010.2
2014-Jul-25 07:13N 30°03' W 090°30'811.2
2014-Jul-25 06:29N 30°03' W 090°40'10 8.4
2014-Jul-25 05:18N 30°04' W 090°51'6 7.9
2014-Jul-25 04:33N 30°07' W 090°57'1 1.1
2014-Jul-25 03:32N 30°06' W 090°58'1 0.0
2014-Jul-23 02:33N 30°07' W 090°57'3 3.2
2014-Jul-23 01:31N 30°05' W 090°54'0 0.0
2014-Jul-22 13:26N 30°05' W 090°54'0 0.0
2014-Jul-22 12:32N 30°05' W 090°54'0 0.0
2014-Jul-22 11:32N 30°05' W 090°54'0 0.0
2014-Jul-22 05:27N 30°05' W 090°54'7 6.7
2014-Jul-22 04:22N 29°59' W 090°49'910.9
2014-Jul-22 03:34N 30°03' W 090°40'  
2014-Jul-15 17:18N 19°27' W 095°55'1114.4
2014-Jul-15 16:33N 19°17' W 095°58'9 8.6
2014-Jul-15 15:31N 19°09' W 096°03'0 0.1
2014-Jul-15 14:31N 19°09' W 096°03'0 0.1
2014-Jul-15 13:31N 19°09' W 096°03'0 0.0
2014-Jul-15 12:31N 19°10' W 096°03'0 0.0
2014-Jul-15 11:31N 19°10' W 096°03'  
Track history (hours):
 
Tides and Currents Weather Stations Pressure Air Temp Water Temp Dewpoint Dewpoint Depression Visibility Wind Speed Wind Dir Waves Ship Positions

Bow Heron

Last reported at 2014-Jul-25 11:13 UTC. Time now 2014-Aug-28 13:26 UTC.
Position N 29°53' W 089°57'.
Warning: this ship's position is 34 days out of date.

Length 175 m; draft 10.5 m.

Type: Ship (hazmat cat A). MMSI: 548779000.

Date/timePositionNaut miles runAvg speedWind from/ knotsBaromVisibWave heightAir tempDewpointWater temp
2014-Jul-25 11:13N 29°53' W 089°57'21 7.2
2014-Jul-25 08:14N 29°56' W 090°21'1010.2
2014-Jul-25 07:13N 30°03' W 090°30'811.2
2014-Jul-25 06:29N 30°03' W 090°40'10 8.4
2014-Jul-25 05:18N 30°04' W 090°51'6 7.9
2014-Jul-25 04:33N 30°07' W 090°57'1 1.1
2014-Jul-25 03:32N 30°06' W 090°58'1 0.0
2014-Jul-23 02:33N 30°07' W 090°57'3 3.2
2014-Jul-23 01:31N 30°05' W 090°54'0 0.0
2014-Jul-22 13:26N 30°05' W 090°54'0 0.0
2014-Jul-22 12:32N 30°05' W 090°54'0 0.0
2014-Jul-22 11:32N 30°05' W 090°54'0 0.0
2014-Jul-22 05:27N 30°05' W 090°54'7 6.7
2014-Jul-22 04:22N 29°59' W 090°49'910.9
2014-Jul-22 03:34N 30°03' W 090°40'  
2014-Jul-15 17:18N 19°27' W 095°55'1114.4
2014-Jul-15 16:33N 19°17' W 095°58'9 8.6
2014-Jul-15 15:31N 19°09' W 096°03'0 0.1
2014-Jul-15 14:31N 19°09' W 096°03'0 0.1
2014-Jul-15 13:31N 19°09' W 096°03'0 0.0
2014-Jul-15 12:31N 19°10' W 096°03'0 0.0
2014-Jul-15 11:31N 19°10' W 096°03'  

Dump ship's entire track history